Time;durP1;ratioP1;P1;durP2;ratioP2;P2;SDS_P1;SDS_P2;PMS_P1;PMS_P2;Temp;Humidity;BMP_temperature;BMP_pressure;BME280_temperature;BME280_humidity;BME280_pressure;Samples;Min_cycle;Max_cycle;Signal;HPM_P1;HPM_P2
2021/11/01 00:00:52;;;;;;;10.93;9.23;;;;;;;;;;5097699;28;20801;-71
2021/11/01 00:03:21;;;;;;;11.30;8.23;;;;;;;;;;5095861;28;20456;-71
2021/11/01 00:05:52;;;;;;;12.27;9.23;;;;;;;;;;5097629;28;20532;-71
2021/11/01 00:08:23;;;;;;;10.73;7.67;;;;;;;;;;5096698;28;20464;-71
2021/11/01 00:10:51;;;;;;;9.93;7.83;;;;;;;;;;5095473;28;20436;-71
2021/11/01 00:13:19;;;;;;;17.57;8.23;;;;;;;;;;5096580;28;20488;-71
2021/11/01 00:15:47;;;;;;;9.77;8.53;;;;;;;;;;5095990;28;20731;-71
2021/11/01 00:18:15;;;;;;;11.63;8.93;;;;;;;;;;5096402;28;20463;-71
2021/11/01 00:20:44;;;;;;;9.80;7.40;;;;;;;;;;5095958;28;20800;-71
2021/11/01 00:23:12;;;;;;;10.13;8.80;;;;;;;;;;5097074;28;20447;-71
2021/11/01 00:25:40;;;;;;;10.20;8.33;;;;;;;;;;5097292;28;20531;-71
2021/11/01 00:28:14;;;;;;;12.23;8.23;;;;;;;;;;5097076;28;20466;-71
2021/11/01 00:30:42;;;;;;;11.23;7.60;;;;;;;;;;5096918;28;20446;-71
2021/11/01 00:33:10;;;;;;;11.40;7.70;;;;;;;;;;5096557;28;20483;-71
2021/11/01 00:35:38;;;;;;;10.17;7.77;;;;;;;;;;5096197;28;20451;-71
2021/11/01 00:38:08;;;;;;;11.23;7.70;;;;;;;;;;5096662;28;20464;-71
2021/11/01 00:40:36;;;;;;;10.47;7.17;;;;;;;;;;5096698;28;20447;-71
2021/11/01 00:43:04;;;;;;;9.40;7.17;;;;;;;;;;5111038;28;20486;-71
2021/11/01 00:45:32;;;;;;;9.17;7.50;;;;;;;;;;5116580;28;20502;-71
2021/11/01 00:48:00;;;;;;;9.43;6.77;;;;;;;;;;5116596;28;20679;-71
2021/11/01 00:50:28;;;;;;;8.30;6.53;;;;;;;;;;5116551;28;20458;-71
2021/11/01 00:52:58;;;;;;;11.80;8.03;;;;;;;;;;5116306;28;20493;-71
2021/11/01 00:55:34;;;;;;;9.00;7.37;;;;;;;;;;5116602;28;20791;-71
2021/11/01 00:58:02;;;;;;;9.30;6.80;;;;;;;;;;5116979;28;20450;-71
2021/11/01 01:00:30;;;;;;;10.33;7.33;;;;;;;;;;5116001;28;20553;-71
2021/11/01 01:02:58;;;;;;;7.70;6.90;;;;;;;;;;5116576;28;20574;-71
2021/11/01 01:05:26;;;;;;;9.60;7.63;;;;;;;;;;5116025;28;20451;-71
2021/11/01 01:07:54;;;;;;;11.67;8.27;;;;;;;;;;5115946;28;20457;-71
2021/11/01 01:10:22;;;;;;;10.67;8.00;;;;;;;;;;5115728;28;20459;-71
2021/11/01 01:12:52;;;;;;;9.77;6.60;;;;;;;;;;5116271;28;20482;-71
2021/11/01 01:15:23;;;;;;;9.00;7.60;;;;;;;;;;5116412;28;20486;-71
2021/11/01 01:17:52;;;;;;;9.93;6.53;;;;;;;;;;5115321;28;20541;-71
2021/11/01 01:20:21;;;;;;;10.00;7.50;;;;;;;;;;5116038;28;20469;-71
2021/11/01 01:22:49;;;;;;;7.90;6.03;;;;;;;;;;5116194;28;20867;-71
2021/11/01 01:25:26;;;;;;;9.87;6.40;;;;;;;;;;5115561;28;20821;-72
2021/11/01 01:27:55;;;;;;;6.40;5.20;;;;;;;;;;5116387;28;20807;-71
2021/11/01 01:30:24;;;;;;;5.60;4.87;;;;;;;;;;5116122;28;20454;-71
2021/11/01 01:32:53;;;;;;;6.50;4.90;;;;;;;;;;5119167;28;20788;-71
2021/11/01 01:35:21;;;;;;;8.33;4.67;;;;;;;;;;5120592;28;20546;-72
2021/11/01 01:37:52;;;;;;;8.20;4.97;;;;;;;;;;5120941;28;20442;-72
2021/11/01 01:40:21;;;;;;;8.37;4.80;;;;;;;;;;5106615;28;20517;-71
2021/11/01 01:42:50;;;;;;;7.07;4.00;;;;;;;;;;5099872;28;20803;-71
2021/11/01 01:45:19;;;;;;;4.63;2.70;;;;;;;;;;5100298;28;20481;-70
2021/11/01 01:47:47;;;;;;;3.37;2.50;;;;;;;;;;5099828;28;20458;-71
2021/11/01 01:50:16;;;;;;;2.87;1.70;;;;;;;;;;5099904;28;20456;-71
2021/11/01 01:52:44;;;;;;;4.80;2.20;;;;;;;;;;5100208;28;20447;-71
2021/11/01 01:55:15;;;;;;;2.80;1.80;;;;;;;;;;5099318;28;20487;-71
2021/11/01 01:57:43;;;;;;;3.57;1.40;;;;;;;;;;5100347;28;20448;-71
2021/11/01 02:00:19;;;;;;;5.83;1.53;;;;;;;;;;5100049;28;20486;-71
2021/11/01 02:02:50;;;;;;;2.60;1.43;;;;;;;;;;5100338;28;20534;-72
2021/11/01 02:05:17;;;;;;;1.77;1.63;;;;;;;;;;5099931;28;20516;-71
2021/11/01 02:07:49;;;;;;;2.40;1.63;;;;;;;;;;5100162;28;20916;-71
2021/11/01 02:10:18;;;;;;;4.80;2.60;;;;;;;;;;5099646;28;21156;-71
2021/11/01 02:12:48;;;;;;;4.60;2.13;;;;;;;;;;5099739;28;20525;-71
2021/11/01 02:15:18;;;;;;;2.17;1.97;;;;;;;;;;5098910;28;20558;-71
2021/11/01 02:17:51;;;;;;;4.00;1.73;;;;;;;;;;5099303;28;20446;-71
2021/11/01 02:20:23;;;;;;;3.47;1.90;;;;;;;;;;5099499;28;21022;-71
2021/11/01 02:23:09;;;;;;;4.43;1.77;;;;;;;;;;5099625;28;20818;-71
2021/11/01 02:25:43;;;;;;;5.50;2.20;;;;;;;;;;5099028;28;20455;-71
2021/11/01 02:28:12;;;;;;;7.20;2.30;;;;;;;;;;5099462;28;20456;-71
2021/11/01 02:30:40;;;;;;;6.43;1.57;;;;;;;;;;5099414;28;20448;-71
2021/11/01 02:33:09;;;;;;;9.10;2.30;;;;;;;;;;5098600;28;20471;-70
2021/11/01 02:35:36;;;;;;;5.43;1.73;;;;;;;;;;5099556;28;20754;-70
2021/11/01 02:38:05;;;;;;;4.37;1.80;;;;;;;;;;5097951;28;20500;-71
2021/11/01 02:40:34;;;;;;;5.90;2.30;;;;;;;;;;5099068;28;20506;-71
2021/11/01 02:43:06;;;;;;;10.43;1.30;;;;;;;;;;5114596;28;20455;-71
2021/11/01 02:45:35;;;;;;;9.50;2.43;;;;;;;;;;5119088;28;20457;-71
2021/11/01 02:48:03;;;;;;;6.53;2.43;;;;;;;;;;5119016;28;20451;-71
2021/11/01 02:50:32;;;;;;;5.13;1.33;;;;;;;;;;5102311;28;20482;-70
2021/11/01 02:53:00;;;;;;;4.00;2.33;;;;;;;;;;5098650;28;20463;-70
2021/11/01 02:55:28;;;;;;;4.50;2.07;;;;;;;;;;5098466;28;20511;-70
2021/11/01 02:57:56;;;;;;;4.40;1.80;;;;;;;;;;5098345;28;20728;-71
2021/11/01 03:00:28;;;;;;;6.23;2.10;;;;;;;;;;5098579;28;20856;-71
2021/11/01 03:02:57;;;;;;;5.50;1.63;;;;;;;;;;5098598;28;20837;-71
2021/11/01 03:05:26;;;;;;;4.87;1.90;;;;;;;;;;5097362;28;20456;-70
2021/11/01 03:07:56;;;;;;;8.70;2.43;;;;;;;;;;5098518;28;20459;-69
2021/11/01 03:10:24;;;;;;;8.03;1.80;;;;;;;;;;5097341;28;20462;-72
2021/11/01 03:12:53;;;;;;;6.93;2.13;;;;;;;;;;5098423;28;20459;-71
2021/11/01 03:15:23;;;;;;;8.83;2.70;;;;;;;;;;5098293;28;20612;-70
2021/11/01 03:17:54;;;;;;;3.27;1.13;;;;;;;;;;5097967;28;20493;-71
2021/11/01 03:20:26;;;;;;;10.73;2.43;;;;;;;;;;5098833;28;20810;-71
2021/11/01 03:22:55;;;;;;;5.20;1.30;;;;;;;;;;5097432;28;20455;-71
2021/11/01 03:25:31;;;;;;;7.57;2.30;;;;;;;;;;5098519;28;20530;-71
2021/11/01 03:27:59;;;;;;;13.57;2.33;;;;;;;;;;5098006;28;20513;-70
2021/11/01 03:30:30;;;;;;;12.37;2.40;;;;;;;;;;5097543;28;21013;-71
2021/11/01 03:33:00;;;;;;;7.77;2.50;;;;;;;;;;5098126;28;20458;-71
2021/11/01 03:35:28;;;;;;;12.83;2.30;;;;;;;;;;5097874;28;20498;-71
2021/11/01 03:37:58;;;;;;;14.93;3.03;;;;;;;;;;5097832;28;20463;-71
2021/11/01 03:40:31;;;;;;;6.90;2.27;;;;;;;;;;5097536;28;20455;-70
2021/11/01 03:43:02;;;;;;;9.30;2.40;;;;;;;;;;5097142;28;20458;-70
2021/11/01 03:45:30;;;;;;;7.63;1.53;;;;;;;;;;5096860;28;20524;-71
2021/11/01 03:48:03;;;;;;;11.87;3.40;;;;;;;;;;5097506;28;20491;-71
2021/11/01 03:50:37;;;;;;;10.07;3.00;;;;;;;;;;5096634;28;20735;-70
2021/11/01 03:53:04;;;;;;;8.10;2.57;;;;;;;;;;5096720;28;20812;-70
2021/11/01 03:55:34;;;;;;;15.43;3.30;;;;;;;;;;5095198;28;20494;-70
2021/11/01 03:58:02;;;;;;;7.30;1.97;;;;;;;;;;5096859;28;20462;-70
2021/11/01 04:00:32;;;;;;;9.80;1.77;;;;;;;;;;5096993;28;20554;-70
2021/11/01 04:03:02;;;;;;;9.33;2.77;;;;;;;;;;5097199;28;20535;-70
2021/11/01 04:05:30;;;;;;;17.13;2.70;;;;;;;;;;5096599;28;20493;-71
2021/11/01 04:07:58;;;;;;;10.17;2.87;;;;;;;;;;5096740;28;20866;-70
2021/11/01 04:10:26;;;;;;;8.87;1.57;;;;;;;;;;5096467;28;20452;-71
2021/11/01 04:12:55;;;;;;;12.63;2.83;;;;;;;;;;5096574;28;20539;-71
2021/11/01 04:15:24;;;;;;;9.57;3.10;;;;;;;;;;5096381;28;20483;-71
2021/11/01 04:17:56;;;;;;;6.73;2.17;;;;;;;;;;5095763;28;20456;-71
2021/11/01 04:20:36;;;;;;;7.57;2.00;;;;;;;;;;5096300;28;20481;-71
2021/11/01 04:23:10;;;;;;;6.90;2.20;;;;;;;;;;5096113;28;20478;-71
2021/11/01 04:25:38;;;;;;;8.43;2.50;;;;;;;;;;5096124;28;20960;-71
2021/11/01 04:28:09;;;;;;;3.80;1.77;;;;;;;;;;5103425;28;20538;-71
2021/11/01 04:30:40;;;;;;;11.43;2.77;;;;;;;;;;5116500;28;20523;-71
2021/11/01 04:33:11;;;;;;;5.70;1.37;;;;;;;;;;5116520;28;20808;-71
2021/11/01 04:35:46;;;;;;;8.70;2.67;;;;;;;;;;5100673;28;20556;-72
2021/11/01 04:38:23;;;;;;;9.33;2.03;;;;;;;;;;5096938;28;20459;-71
2021/11/01 04:41:06;;;;;;;8.40;3.10;;;;;;;;;;5095575;28;21350;-71
2021/11/01 04:54:34;;;;;;;5.57;1.60;;;;;;;;;;5095643;28;20473;-70
2021/11/01 04:57:06;;;;;;;8.27;2.60;;;;;;;;;;5095547;28;20459;-71
2021/11/01 04:59:35;;;;;;;12.50;2.13;;;;;;;;;;5096563;28;20448;-70
2021/11/01 05:02:03;;;;;;;8.30;1.90;;;;;;;;;;5095617;28;20797;-71
2021/11/01 05:04:34;;;;;;;4.37;1.57;;;;;;;;;;5096140;28;20457;-71
2021/11/01 05:07:06;;;;;;;8.93;2.53;;;;;;;;;;5098175;28;20942;-71
2021/11/01 05:09:37;;;;;;;5.83;2.30;;;;;;;;;;5099723;28;20466;-71
2021/11/01 05:12:18;;;;;;;13.83;2.77;;;;;;;;;;5100094;28;20487;-71
2021/11/01 05:15:01;;;;;;;8.80;2.73;;;;;;;;;;5100056;28;20487;-71
2021/11/01 05:17:47;;;;;;;6.80;3.30;;;;;;;;;;5099541;28;20443;-71
2021/11/01 05:20:19;;;;;;;8.30;2.40;;;;;;;;;;5100029;28;20789;-71
2021/11/01 05:22:53;;;;;;;14.40;3.50;;;;;;;;;;5099410;28;20627;-71
2021/11/01 05:25:25;;;;;;;6.47;2.50;;;;;;;;;;5098645;28;20443;-71
2021/11/01 05:28:08;;;;;;;4.97;2.30;;;;;;;;;;5099699;28;20471;-71
2021/11/01 05:30:38;;;;;;;19.23;3.87;;;;;;;;;;5099745;28;20452;-71
2021/11/01 05:33:24;;;;;;;13.20;2.40;;;;;;;;;;5098873;28;20456;-71
2021/11/01 05:35:51;;;;;;;11.70;3.23;;;;;;;;;;5098815;28;20913;-71
2021/11/01 05:38:21;;;;;;;10.37;2.70;;;;;;;;;;5098360;28;20585;-71
2021/11/01 05:40:49;;;;;;;7.90;3.07;;;;;;;;;;5099022;28;20813;-71
2021/11/01 05:43:17;;;;;;;8.00;3.43;;;;;;;;;;5098510;28;20886;-70
2021/11/01 05:45:45;;;;;;;10.50;3.37;;;;;;;;;;5099404;28;20444;-70
2021/11/01 05:48:12;;;;;;;8.30;2.87;;;;;;;;;;5099164;28;20524;-70
2021/11/01 05:50:40;;;;;;;11.60;2.57;;;;;;;;;;5099142;28;20477;-71
2021/11/01 05:53:13;;;;;;;9.50;2.40;;;;;;;;;;5099515;28;20456;-71
2021/11/01 05:55:50;;;;;;;14.60;4.97;;;;;;;;;;5099270;28;20490;-71
2021/11/01 05:58:26;;;;;;;8.10;2.40;;;;;;;;;;5099387;28;20455;-71
2021/11/01 06:01:14;;;;;;;8.83;2.90;;;;;;;;;;5098824;28;20561;-71
2021/11/01 06:03:44;;;;;;;5.63;3.23;;;;;;;;;;5098943;28;21084;-71
2021/11/01 06:06:23;;;;;;;6.97;2.43;;;;;;;;;;5097352;28;20452;-71
2021/11/01 06:09:06;;;;;;;15.00;2.90;;;;;;;;;;5097762;28;20867;-71
2021/11/01 06:14:20;;;;;;;6.30;3.27;;;;;;;;;;5095940;28;20718;-72
2021/11/01 06:16:48;;;;;;;10.73;2.90;;;;;;;;;;5097178;28;20471;-71
2021/11/01 06:19:16;;;;;;;9.07;3.00;;;;;;;;;;5093641;28;20938;-72
2021/11/01 06:21:47;;;;;;;12.03;2.57;;;;;;;;;;5093907;28;20455;-71
2021/11/01 06:24:30;;;;;;;8.93;3.17;;;;;;;;;;5095200;28;20801;-71
2021/11/01 06:27:01;;;;;;;8.23;3.00;;;;;;;;;;5094653;28;20459;-73
2021/11/01 06:29:35;;;;;;;12.93;3.90;;;;;;;;;;5098773;28;20457;-72
2021/11/01 06:32:10;;;;;;;6.90;3.70;;;;;;;;;;5114247;28;20851;-71
2021/11/01 06:38:59;;;;;;;10.80;3.67;;;;;;;;;;5114035;28;20651;-71
2021/11/01 06:40:32;;;;;;;10.73;4.60;;;;;;;;;;5094494;28;20415;-71
2021/11/01 06:43:09;;;;;;;12.27;4.57;;;;;;;;;;5093205;28;20462;-71
2021/11/01 06:45:55;;;;;;;6.37;3.60;;;;;;;;;;5093771;28;20557;-71
2021/11/01 06:51:24;;;;;;;11.90;4.27;;;;;;;;;;5093426;28;20419;-70
2021/11/01 06:54:17;;;;;;;13.60;4.70;;;;;;;;;;5096459;28;20469;-70
2021/11/01 07:16:17;;;;;;;4.73;2.37;;;;;;;;;;5110937;28;20538;-71
2021/11/01 07:18:52;;;;;;;10.93;4.67;;;;;;;;;;5103014;28;20521;-70
2021/11/01 07:21:43;;;;;;;8.33;3.33;;;;;;;;;;5100086;28;20539;-70
2021/11/01 07:30:18;;;;;;;11.13;5.27;;;;;;;;;;5104388;28;20442;-70
2021/11/01 08:23:05;;;;;;;11.63;3.27;;;;;;;;;;5115415;28;20755;-70
2021/11/01 08:37:07;;;;;;;11.03;4.97;;;;;;;;;;5093387;28;20918;-70
2021/11/01 08:42:40;;;;;;;6.30;4.07;;;;;;;;;;5059499;28;20422;-70
2021/11/01 08:45:22;;;;;;;7.60;3.87;;;;;;;;;;5113046;28;20798;-73
2021/11/01 08:48:09;;;;;;;9.33;2.90;;;;;;;;;;5093990;28;20455;-69
2021/11/01 08:51:05;;;;;;;10.93;3.83;;;;;;;;;;5095171;28;20439;-72
2021/11/01 09:04:51;;;;;;;17.87;4.43;;;;;;;;;;5114615;28;20538;-72
2021/11/01 09:07:40;;;;;;;6.33;4.30;;;;;;;;;;5108048;28;20435;-72
2021/11/01 09:19:09;;;;;;;9.87;4.83;;;;;;;;;;5106538;28;20431;-71
2021/11/01 09:21:41;;;;;;;6.77;2.80;;;;;;;;;;5099118;28;20532;-70
2021/11/01 09:27:02;;;;;;;10.07;4.97;;;;;;;;;;5092991;28;20744;-70
2021/11/01 09:29:46;;;;;;;4.10;2.10;;;;;;;;;;5113936;28;20726;-70
2021/11/01 09:43:38;;;;;;;13.03;5.03;;;;;;;;;;5052184;28;20445;-71
2021/11/01 09:46:09;;;;;;;10.50;8.90;;;;;;;;;;5100556;28;20463;-71
2021/11/01 09:48:46;;;;;;;11.77;6.93;;;;;;;;;;5115024;28;20459;-70
2021/11/01 09:51:32;;;;;;;9.40;4.77;;;;;;;;;;5095739;28;20458;-71
2021/11/01 09:54:06;;;;;;;11.10;4.30;;;;;;;;;;5102676;28;20434;-71
2021/11/01 09:56:46;;;;;;;9.20;6.23;;;;;;;;;;5118101;28;20488;-70
2021/11/01 09:59:15;;;;;;;12.80;4.77;;;;;;;;;;5098418;28;20738;-70
2021/11/01 10:01:43;;;;;;;11.60;4.90;;;;;;;;;;5097631;28;20478;-70
2021/11/01 10:04:18;;;;;;;7.07;3.70;;;;;;;;;;5096896;28;21077;-71
2021/11/01 10:07:03;;;;;;;9.87;5.17;;;;;;;;;;5104284;28;20544;-71
2021/11/01 10:09:36;;;;;;;14.60;3.70;;;;;;;;;;5097452;28;20466;-70
2021/11/01 10:12:11;;;;;;;8.23;3.93;;;;;;;;;;5117864;28;20799;-73
2021/11/01 10:14:46;;;;;;;6.70;2.80;;;;;;;;;;5107415;28;20710;-71
2021/11/01 10:17:35;;;;;;;11.10;3.83;;;;;;;;;;5107464;28;20859;-72
2021/11/01 10:20:11;;;;;;;5.33;2.03;;;;;;;;;;5118924;28;20453;-72
2021/11/01 10:22:41;;;;;;;5.80;3.80;;;;;;;;;;5117988;28;20529;-70
2021/11/01 10:25:16;;;;;;;8.23;3.10;;;;;;;;;;5118522;28;20453;-70
2021/11/01 10:27:49;;;;;;;4.50;2.40;;;;;;;;;;5118021;28;20446;-70
2021/11/01 10:30:20;;;;;;;10.40;3.50;;;;;;;;;;5114233;28;20467;-70
2021/11/01 10:32:49;;;;;;;7.93;3.80;;;;;;;;;;5096042;28;20477;-70
2021/11/01 10:35:24;;;;;;;11.57;3.80;;;;;;;;;;5103248;28;20539;-70
2021/11/01 10:38:19;;;;;;;9.70;5.17;;;;;;;;;;5097112;28;20458;-70
2021/11/01 10:40:54;;;;;;;9.17;2.70;;;;;;;;;;5084154;28;20860;-70
2021/11/01 10:43:39;;;;;;;6.00;2.43;;;;;;;;;;5106872;28;20458;-70
2021/11/01 10:57:53;;;;;;;6.07;3.50;;;;;;;;;;5097297;28;20512;-70
2021/11/01 11:11:38;;;;;;;4.23;2.50;;;;;;;;;;5096854;28;20870;-70
2021/11/01 11:14:14;;;;;;;6.70;3.03;;;;;;;;;;5097422;28;20871;-70
2021/11/01 11:23:10;;;;;;;8.10;2.37;;;;;;;;;;5094249;28;20423;-71
2021/11/01 11:28:54;;;;;;;8.80;3.43;;;;;;;;;;5098242;28;20427;-69
2021/11/01 11:31:39;;;;;;;5.47;2.37;;;;;;;;;;5098036;28;20534;-72
2021/11/01 11:40:11;;;;;;;6.73;2.53;;;;;;;;;;5086327;28;20446;-73
2021/11/01 11:43:05;;;;;;;9.70;4.20;;;;;;;;;;5115263;28;20438;-71
2021/11/01 11:48:23;;;;;;;11.27;3.77;;;;;;;;;;5117138;28;20719;-71
2021/11/01 11:50:53;;;;;;;9.13;6.93;;;;;;;;;;5116255;28;20469;-72
2021/11/01 11:53:24;;;;;;;13.30;4.30;;;;;;;;;;5110888;28;20455;-71
2021/11/01 11:56:03;;;;;;;7.10;3.10;;;;;;;;;;5106883;28;20452;-71
2021/11/01 11:58:35;;;;;;;7.90;3.37;;;;;;;;;;5095800;28;20804;-70
2021/11/01 12:01:03;;;;;;;9.47;3.70;;;;;;;;;;5097751;28;20535;-71
2021/11/01 12:03:40;;;;;;;4.70;3.00;;;;;;;;;;5104619;28;20467;-71
2021/11/01 12:06:15;;;;;;;7.80;3.00;;;;;;;;;;5109227;28;20463;-71
2021/11/01 12:08:47;;;;;;;3.43;2.33;;;;;;;;;;5111453;28;20457;-72
2021/11/01 12:11:30;;;;;;;5.40;3.33;;;;;;;;;;5096198;28;20709;-73
2021/11/01 12:14:31;;;;;;;6.23;3.57;;;;;;;;;;5094456;28;20463;-70
2021/11/01 12:17:09;;;;;;;4.17;2.50;;;;;;;;;;5102501;28;20505;-71
2021/11/01 12:19:38;;;;;;;9.00;3.53;;;;;;;;;;5114626;28;20455;-73
2021/11/01 12:22:12;;;;;;;7.50;2.40;;;;;;;;;;5111065;28;20900;-72
2021/11/01 12:24:49;;;;;;;8.50;4.53;;;;;;;;;;5113771;28;20493;-71
2021/11/01 12:27:18;;;;;;;6.50;3.77;;;;;;;;;;5114014;28;20519;-72
2021/11/01 12:29:49;;;;;;;9.70;3.20;;;;;;;;;;5107405;28;20475;-71
2021/11/01 12:32:20;;;;;;;11.20;5.97;;;;;;;;;;5111258;28;20459;-72
2021/11/01 12:34:57;;;;;;;7.10;3.20;;;;;;;;;;5093724;28;21103;-73
2021/11/01 12:37:44;;;;;;;9.87;5.13;;;;;;;;;;5110764;28;20505;-73
2021/11/01 12:40:24;;;;;;;4.87;3.03;;;;;;;;;;5100710;28;20451;-72
2021/11/01 12:43:05;;;;;;;4.57;3.87;;;;;;;;;;5093368;28;20448;-71
2021/11/01 12:48:45;;;;;;;3.77;2.47;;;;;;;;;;5086806;28;20448;-72
2021/11/01 12:57:06;;;;;;;8.30;3.60;;;;;;;;;;5094244;28;20475;-71
2021/11/01 12:59:42;;;;;;;10.17;3.47;;;;;;;;;;5093768;28;20462;-71
2021/11/01 13:02:16;;;;;;;6.57;4.00;;;;;;;;;;5094269;28;20486;-71
2021/11/01 13:04:51;;;;;;;7.93;6.67;;;;;;;;;;5095691;28;20763;-70
2021/11/01 13:10:20;;;;;;;6.37;2.50;;;;;;;;;;5095892;28;20536;-71
2021/11/01 13:18:29;;;;;;;5.47;3.77;;;;;;;;;;5092802;28;20466;-70
2021/11/01 13:20:59;;;;;;;8.43;2.50;;;;;;;;;;5094347;28;20451;-70
2021/11/01 13:23:38;;;;;;;7.97;2.07;;;;;;;;;;5095405;28;20448;-71
2021/11/01 13:26:23;;;;;;;6.17;2.17;;;;;;;;;;5103232;28;20838;-69
2021/11/01 13:29:07;;;;;;;9.43;4.73;;;;;;;;;;5105805;28;20444;-70
2021/11/01 13:37:26;;;;;;;6.10;1.73;;;;;;;;;;5155768;27;20373;-69
2021/11/01 13:40:03;;;;;;;6.00;2.30;;;;;;;;;;5153931;27;20525;-70
2021/11/01 13:42:30;;;;;;;8.53;2.33;;;;;;;;;;5154855;27;20571;-69
2021/11/01 13:45:12;;;;;;;7.50;3.37;;;;;;;;;;5146436;27;20504;-71
2021/11/01 13:47:48;;;;;;;3.53;2.17;;;;;;;;;;5077285;28;20567;-71
2021/11/01 13:50:34;;;;;;;3.60;1.73;;;;;;;;;;5138851;27;20460;-70
2021/11/01 13:53:17;;;;;;;5.50;1.73;;;;;;;;;;5133972;27;20478;-71
2021/11/01 13:59:06;;;;;;;5.77;3.00;;;;;;;;;;5051343;28;20449;-72
2021/11/01 14:01:45;;;;;;;6.30;2.63;;;;;;;;;;5133763;27;20449;-70
2021/11/01 14:13:11;;;;;;;4.70;2.40;;;;;;;;;;5154265;27;20455;-70
2021/11/01 14:27:39;;;;;;;8.20;6.00;;;;;;;;;;5144525;27;20461;-70
2021/11/01 14:55:57;;;;;;;9.30;4.53;;;;;;;;;;5118038;27;20442;-70
2021/11/01 15:01:20;;;;;;;7.10;4.80;;;;;;;;;;5133672;27;20748;-72
2021/11/01 15:21:32;;;;;;;4.70;2.23;;;;;;;;;;5136642;27;20449;-71
2021/11/01 15:38:45;;;;;;;11.00;3.80;;;;;;;;;;5126108;27;20461;-71
2021/11/01 16:18:18;;;;;;;10.60;2.90;;;;;;;;;;5115148;27;20542;-71
2021/11/01 16:20:51;;;;;;;4.27;1.77;;;;;;;;;;5120818;27;20465;-71
2021/11/01 16:23:34;;;;;;;7.03;2.53;;;;;;;;;;5136146;27;20529;-70
2021/11/01 16:26:12;;;;;;;5.40;2.90;;;;;;;;;;5137214;27;20465;-71
2021/11/01 16:28:44;;;;;;;4.23;1.90;;;;;;;;;;5136039;27;20461;-70
2021/11/01 16:31:28;;;;;;;7.83;2.37;;;;;;;;;;5125291;27;20501;-70
2021/11/01 16:34:02;;;;;;;13.83;4.27;;;;;;;;;;5133726;27;20434;-71
2021/11/01 16:39:24;;;;;;;6.40;2.77;;;;;;;;;;5097737;27;20465;-71
2021/11/01 16:41:54;;;;;;;3.23;2.30;;;;;;;;;;5118749;27;20466;-71
2021/11/01 16:44:25;;;;;;;7.37;3.17;;;;;;;;;;5120321;27;20877;-71
2021/11/01 16:49:40;;;;;;;7.87;2.57;;;;;;;;;;5123258;27;20450;-72
2021/11/01 16:52:15;;;;;;;10.23;3.30;;;;;;;;;;5135817;27;20450;-70
2021/11/01 16:54:45;;;;;;;8.00;4.20;;;;;;;;;;5136622;27;20445;-71
2021/11/01 16:57:18;;;;;;;7.13;3.87;;;;;;;;;;5135307;27;20749;-71
2021/11/01 16:59:52;;;;;;;6.43;3.20;;;;;;;;;;5135839;27;20449;-71
2021/11/01 17:02:37;;;;;;;3.97;2.90;;;;;;;;;;5136036;27;20469;-71
2021/11/01 17:05:20;;;;;;;5.60;4.60;;;;;;;;;;5135420;27;20861;-70
2021/11/01 17:22:47;;;;;;;6.53;2.90;;;;;;;;;;5123934;27;20443;-71
2021/11/01 17:25:58;;;;;;;6.37;2.00;;;;;;;;;;5136293;27;20464;-73
2021/11/01 17:29:05;;;;;;;3.57;2.40;;;;;;;;;;5134610;27;20454;-70
2021/11/01 17:37:29;;;;;;;4.67;2.10;;;;;;;;;;5071080;28;20468;-71
2021/11/01 18:41:42;;;;;;;8.67;3.30;;;;;;;;;;5131286;27;20813;-73
2021/11/01 18:44:36;;;;;;;6.50;3.63;;;;;;;;;;5128784;27;20467;-71
2021/11/01 18:52:43;;;;;;;6.30;2.50;;;;;;;;;;5123894;27;20460;-72
2021/11/01 18:55:14;;;;;;;5.13;2.80;;;;;;;;;;5118652;27;20469;-72
2021/11/01 18:57:42;;;;;;;7.30;3.20;;;;;;;;;;5120645;27;20466;-72
2021/11/01 19:00:10;;;;;;;5.40;2.77;;;;;;;;;;5117506;27;20486;-71
2021/11/01 19:02:44;;;;;;;9.50;2.97;;;;;;;;;;5118516;27;20451;-71
2021/11/01 19:05:26;;;;;;;9.27;3.20;;;;;;;;;;5118732;27;20799;-71
2021/11/01 19:08:13;;;;;;;5.07;2.80;;;;;;;;;;5122126;27;20447;-71
2021/11/01 19:11:14;;;;;;;5.93;3.47;;;;;;;;;;5121319;27;20505;-70
2021/11/01 20:04:21;;;;;;;8.07;4.27;;;;;;;;;;5118494;27;20522;-72
2021/11/01 20:07:23;;;;;;;6.57;2.60;;;;;;;;;;5134092;27;20439;-72
2021/11/01 21:25:37;;;;;;;3.20;2.13;;;;;;;;;;5137001;27;20441;-70
2021/11/01 21:28:04;;;;;;;8.90;2.30;;;;;;;;;;5131574;27;20449;-71
2021/11/01 21:30:34;;;;;;;6.40;3.63;;;;;;;;;;5136175;27;20485;-72
2021/11/01 21:33:02;;;;;;;8.77;3.20;;;;;;;;;;5137824;27;20453;-71
2021/11/01 21:35:30;;;;;;;6.17;3.07;;;;;;;;;;5118117;27;20510;-72
2021/11/01 21:37:59;;;;;;;4.73;2.50;;;;;;;;;;5116368;27;20453;-72
2021/11/01 21:40:27;;;;;;;4.40;2.40;;;;;;;;;;5116730;27;20455;-72
2021/11/01 21:42:54;;;;;;;5.60;2.97;;;;;;;;;;5116444;27;20458;-72
2021/11/01 21:45:24;;;;;;;5.63;2.73;;;;;;;;;;5121978;27;21156;-72
2021/11/01 21:47:51;;;;;;;3.83;2.53;;;;;;;;;;5125705;27;20530;-72
2021/11/01 21:50:20;;;;;;;7.60;2.50;;;;;;;;;;5129495;27;20450;-71
2021/11/01 21:52:48;;;;;;;8.50;2.47;;;;;;;;;;5132488;27;20460;-72
2021/11/01 21:55:17;;;;;;;4.23;2.50;;;;;;;;;;5125494;27;20533;-72
2021/11/01 21:57:51;;;;;;;3.93;2.23;;;;;;;;;;5134661;27;20869;-71
2021/11/01 22:00:29;;;;;;;3.20;2.47;;;;;;;;;;5137006;27;20457;-71
2021/11/01 22:16:59;;;;;;;7.50;2.97;;;;;;;;;;5119796;27;20492;-72
2021/11/01 22:19:48;;;;;;;8.83;2.87;;;;;;;;;;5120133;27;20439;-72
2021/11/01 22:25:07;;;;;;;7.17;3.17;;;;;;;;;;5102947;27;21135;-71
2021/11/01 22:33:31;;;;;;;10.23;3.50;;;;;;;;;;5122315;27;20579;-73
2021/11/01 22:55:48;;;;;;;3.67;1.93;;;;;;;;;;5141523;27;20536;-71
2021/11/01 22:58:15;;;;;;;6.50;2.00;;;;;;;;;;5139611;27;20454;-72
2021/11/01 23:00:45;;;;;;;4.67;1.90;;;;;;;;;;5138796;27;20542;-72
2021/11/01 23:03:21;;;;;;;10.60;2.43;;;;;;;;;;5129223;27;20972;-71
2021/11/01 23:33:31;;;;;;;3.87;2.43;;;;;;;;;;5132104;27;20449;-72
2021/11/01 23:36:01;;;;;;;4.73;2.40;;;;;;;;;;5138530;27;20500;-71
2021/11/01 23:38:28;;;;;;;4.73;1.80;;;;;;;;;;5119153;27;20490;-71
2021/11/01 23:40:55;;;;;;;4.20;2.73;;;;;;;;;;5119588;27;20554;-71
2021/11/01 23:43:23;;;;;;;7.83;2.50;;;;;;;;;;5119095;27;20511;-71
2021/11/01 23:45:52;;;;;;;4.77;2.33;;;;;;;;;;5119789;27;20784;-72
2021/11/01 23:48:24;;;;;;;8.20;3.10;;;;;;;;;;5118555;27;20537;-71
2021/11/01 23:50:52;;;;;;;5.60;2.70;;;;;;;;;;5118802;27;20451;-71
2021/11/01 23:53:33;;;;;;;7.57;2.53;;;;;;;;;;5118361;27;20471;-71
2021/11/01 23:58:45;;;;;;;11.60;3.20;;;;;;;;;;5115939;27;20477;-72
